createdAt,value
2022-11-04T00:02:08.261Z,11.70
2022-11-04T00:04:35.179Z,10.50
2022-11-04T00:07:24.750Z,14.30
2022-11-04T00:09:51.355Z,12.77
2022-11-04T00:12:27.135Z,17.27
2022-11-04T00:14:54.393Z,14.30
2022-11-04T00:17:24.026Z,10.13
2022-11-04T00:20:13.218Z,16.20
2022-11-04T00:22:59.832Z,12.00
2022-11-04T00:25:46.161Z,13.20
2022-11-04T00:28:36.780Z,13.27
2022-11-04T00:31:26.745Z,13.53
2022-11-04T00:33:55.375Z,13.37
2022-11-04T00:36:23.659Z,13.47
2022-11-04T00:38:50.418Z,14.03
2022-11-04T00:41:28.790Z,13.50
2022-11-04T00:43:56.804Z,12.57
2022-11-04T00:46:23.463Z,10.90
2022-11-04T00:48:52.928Z,13.93
2022-11-04T00:51:21.447Z,13.13
2022-11-04T00:53:48.566Z,13.47
2022-11-04T00:56:15.336Z,10.53
2022-11-04T00:58:41.996Z,14.17
2022-11-04T01:01:10.344Z,14.83
2022-11-04T01:03:37.377Z,13.57
2022-11-04T01:06:04.228Z,13.03
2022-11-04T01:08:30.899Z,16.43
2022-11-04T01:11:01.633Z,14.67
2022-11-04T01:13:28.291Z,13.13
2022-11-04T01:15:54.925Z,13.73
2022-11-04T01:18:22.290Z,12.73
2022-11-04T01:20:49.061Z,12.27
2022-11-04T01:23:15.685Z,13.47
2022-11-04T01:25:42.376Z,11.90
2022-11-04T01:28:09.284Z,13.90
2022-11-04T01:30:38.771Z,15.00
2022-11-04T01:33:05.472Z,11.70
2022-11-04T01:35:32.401Z,9.70
2022-11-04T01:37:59.155Z,15.73
2022-11-04T01:40:25.846Z,17.77
2022-11-04T01:42:52.498Z,13.17
2022-11-04T01:45:20.784Z,13.93
2022-11-04T01:47:57.831Z,12.30
2022-11-04T01:50:27.250Z,13.40
2022-11-04T01:52:54.856Z,15.33
2022-11-04T01:55:26.341Z,18.83
2022-11-04T01:57:56.834Z,18.13
2022-11-04T02:00:23.433Z,16.60
2022-11-04T02:03:01.947Z,15.40
2022-11-04T02:05:30.153Z,17.80
2022-11-04T02:07:58.301Z,13.27
2022-11-04T02:10:28.020Z,14.87
2022-11-04T02:12:55.919Z,14.07
2022-11-04T02:15:53.206Z,16.73
2022-11-04T02:19:01.440Z,17.33
2022-11-04T02:21:40.176Z,18.43
2022-11-04T02:24:39.379Z,15.07
2022-11-04T02:27:21.212Z,19.20
2022-11-04T02:29:59.994Z,19.27
2022-11-04T02:33:19.472Z,15.83
2022-11-04T02:36:24.700Z,16.03
2022-11-04T02:38:54.906Z,15.40
2022-11-04T02:41:43.361Z,16.30
2022-11-04T02:44:20.945Z,15.13
2022-11-04T02:46:54.364Z,20.30
2022-11-04T02:49:43.812Z,15.68
2022-11-04T02:52:12.645Z,16.90
2022-11-04T02:54:45.554Z,18.37
2022-11-04T02:57:16.849Z,18.80
2022-11-04T03:00:04.408Z,16.33
2022-11-04T03:02:36.058Z,15.03
2022-11-04T03:05:03.765Z,17.80
2022-11-04T03:07:34.434Z,15.67
2022-11-04T03:10:05.803Z,16.13
2022-11-04T03:12:37.529Z,13.97
2022-11-04T03:15:07.591Z,15.73
2022-11-04T03:17:43.718Z,15.57
2022-11-04T03:20:15.880Z,14.27
2022-11-04T03:22:42.511Z,14.27
2022-11-04T03:25:09.460Z,12.87
2022-11-04T03:27:50.337Z,17.00
2022-11-04T03:30:18.947Z,15.10
2022-11-04T03:32:58.922Z,13.37
2022-11-04T03:35:27.306Z,13.83
2022-11-04T03:37:54.051Z,16.60
2022-11-04T03:40:21.133Z,16.83
2022-11-04T03:42:52.797Z,14.33
2022-11-04T03:45:19.680Z,16.40
2022-11-04T03:47:46.389Z,17.13
2022-11-04T03:50:36.927Z,15.27
2022-11-04T03:53:03.681Z,15.00
2022-11-04T03:55:57.852Z,19.27
2022-11-04T03:58:50.617Z,16.25
2022-11-04T04:01:42.411Z,19.07
2022-11-04T04:04:32.817Z,16.03
2022-11-04T04:07:07.089Z,15.50
2022-11-04T04:12:22.351Z,15.53
2022-11-04T04:14:55.044Z,17.57
2022-11-04T04:17:36.441Z,15.97
2022-11-04T04:20:16.194Z,18.67
2022-11-04T04:22:50.569Z,22.10
2022-11-04T04:25:44.519Z,14.70
2022-11-04T04:28:13.176Z,15.97
2022-11-04T04:30:40.545Z,19.57
2022-11-04T04:33:09.903Z,18.63
2022-11-04T04:35:42.194Z,20.37
2022-11-04T04:38:33.379Z,20.07
2022-11-04T04:41:23.687Z,20.23
2022-11-04T04:44:09.127Z,18.23
2022-11-04T04:46:37.729Z,19.13
2022-11-04T04:49:08.679Z,19.20
2022-11-04T04:51:39.636Z,16.90
2022-11-04T04:54:06.448Z,18.67
2022-11-04T04:56:33.085Z,16.17
2022-11-04T04:58:59.849Z,18.17
2022-11-04T05:01:26.620Z,17.60
2022-11-04T05:03:53.345Z,20.57
2022-11-04T05:06:20.291Z,19.33
2022-11-04T05:08:46.884Z,19.10
2022-11-04T05:11:13.691Z,16.33
2022-11-04T05:13:40.380Z,18.57
2022-11-04T05:16:11.579Z,17.40
2022-11-04T05:18:38.406Z,20.13
2022-11-04T05:21:10.951Z,18.50
2022-11-04T05:23:37.753Z,17.73
2022-11-04T05:26:04.551Z,20.27
2022-11-04T05:28:31.515Z,19.83
2022-11-04T05:30:58.542Z,20.57
2022-11-04T05:33:25.139Z,17.50
2022-11-04T05:35:52.504Z,18.80
2022-11-04T05:38:20.614Z,20.07
2022-11-04T05:40:47.720Z,22.13
2022-11-04T05:43:14.384Z,18.93
2022-11-04T05:45:41.069Z,16.80
2022-11-04T05:48:07.756Z,20.73
2022-11-04T05:50:34.964Z,18.30
2022-11-04T05:53:01.828Z,18.67
2022-11-04T05:55:28.798Z,19.17
2022-11-04T05:57:55.451Z,17.90
2022-11-04T06:00:22.282Z,20.00
2022-11-04T06:02:49.126Z,15.77
2022-11-04T06:05:15.941Z,19.83
2022-11-04T06:07:42.673Z,16.03
2022-11-04T06:10:09.701Z,17.47
2022-11-04T06:12:36.323Z,18.33
2022-11-04T06:15:03.083Z,17.00
2022-11-04T06:17:29.664Z,17.40
2022-11-04T06:19:56.503Z,19.07
2022-11-04T06:22:23.720Z,15.80
2022-11-04T06:24:50.660Z,18.00
2022-11-04T06:27:17.721Z,21.77
2022-11-04T06:29:44.560Z,20.03
2022-11-04T06:32:15.535Z,17.53
2022-11-04T06:34:42.328Z,17.80
2022-11-04T06:37:09.791Z,20.00
2022-11-04T06:39:36.925Z,21.50
2022-11-04T06:42:04.739Z,21.63
2022-11-04T06:44:31.595Z,18.30
2022-11-04T06:46:58.625Z,16.73
2022-11-04T06:49:25.468Z,20.03
2022-11-04T06:51:52.226Z,16.67
2022-11-04T06:54:18.900Z,16.80
2022-11-04T06:56:45.573Z,18.80
2022-11-04T06:59:16.312Z,17.33
2022-11-04T07:01:43.148Z,19.40
2022-11-04T07:04:10.240Z,15.07
2022-11-04T07:06:39.706Z,16.90
2022-11-04T07:09:11.360Z,19.70
2022-11-04T07:11:38.032Z,22.07
2022-11-04T07:14:04.770Z,19.50
2022-11-04T07:16:31.450Z,22.03
2022-11-04T07:18:58.128Z,16.93
2022-11-04T07:21:24.799Z,23.83
2022-11-04T07:23:51.593Z,20.77
2022-11-04T07:26:18.220Z,21.97
2022-11-04T07:28:44.931Z,16.30
2022-11-04T07:31:12.297Z,18.20
2022-11-04T07:33:39.315Z,16.97
2022-11-04T07:36:07.485Z,17.93
2022-11-04T07:38:34.255Z,16.43
2022-11-04T07:41:02.316Z,18.53
2022-11-04T07:43:29.726Z,16.43
2022-11-04T07:46:04.205Z,17.97
2022-11-04T07:48:30.922Z,17.67
2022-11-04T07:50:59.690Z,22.80
2022-11-04T07:53:30.206Z,16.40
2022-11-04T07:55:57.337Z,18.60
2022-11-04T07:58:25.577Z,19.90
2022-11-04T08:00:58.514Z,18.43
2022-11-04T08:03:25.133Z,20.40
2022-11-04T08:05:56.671Z,18.50
2022-11-04T08:08:23.710Z,19.80
2022-11-04T08:11:02.241Z,18.20
2022-11-04T08:13:33.413Z,23.23
2022-11-04T08:16:09.905Z,20.30
2022-11-04T08:18:36.754Z,22.90
2022-11-04T08:21:04.364Z,18.60
2022-11-04T08:23:31.973Z,20.00
2022-11-04T08:25:58.977Z,21.07
2022-11-04T08:28:26.074Z,22.60
2022-11-04T08:30:58.992Z,17.60
2022-11-04T08:33:27.211Z,17.40
2022-11-04T08:35:55.553Z,17.33
2022-11-04T08:38:22.233Z,17.50
2022-11-04T08:40:48.883Z,17.87
2022-11-04T08:43:15.590Z,19.55
2022-11-04T08:45:44.193Z,20.55
2022-11-04T08:48:11.353Z,21.05
2022-11-04T08:50:38.647Z,20.25
2022-11-04T08:53:06.299Z,18.23
2022-11-04T08:55:33.469Z,20.07
2022-11-04T08:58:00.838Z,18.40
2022-11-04T09:00:27.533Z,17.08
2022-11-04T09:02:55.622Z,33.88
2022-11-04T09:05:22.668Z,17.67
2022-11-04T09:07:49.265Z,16.80
2022-11-04T09:10:15.892Z,17.60
2022-11-04T09:12:43.418Z,20.75
2022-11-04T09:15:10.579Z,19.70
2022-11-04T09:17:37.424Z,18.67
2022-11-04T09:20:05.105Z,18.52
2022-11-04T09:22:31.927Z,18.15
2022-11-04T09:24:58.646Z,18.95
2022-11-04T09:27:25.450Z,21.77
2022-11-04T09:29:52.043Z,23.35
2022-11-04T09:32:18.617Z,20.17
2022-11-04T09:34:45.195Z,24.05
2022-11-04T09:37:11.833Z,22.77
2022-11-04T09:39:38.461Z,22.83
2022-11-04T09:42:17.505Z,19.80
2022-11-04T09:45:14.856Z,19.33
2022-11-04T09:47:32.241Z,23.10
2022-11-04T09:50:00.266Z,18.58
2022-11-04T09:52:33.315Z,21.13
2022-11-04T09:55:07.546Z,20.02
2022-11-04T10:00:00.850Z,21.83
2022-11-04T10:02:49.675Z,22.55
2022-11-04T10:05:28.563Z,21.73
2022-11-04T10:08:10.243Z,21.52
2022-11-04T10:10:39.429Z,18.52
2022-11-04T10:13:36.493Z,20.02
2022-11-04T10:16:14.352Z,18.02
2022-11-04T10:19:01.584Z,17.73
2022-11-04T10:21:39.469Z,20.27
2022-11-04T10:24:15.167Z,21.73
2022-11-04T10:27:01.266Z,20.10
2022-11-04T10:29:33.961Z,19.80
2022-11-04T10:32:03.562Z,16.52
2022-11-04T10:34:57.337Z,16.77
2022-11-04T10:37:25.587Z,16.08
2022-11-04T10:39:59.237Z,16.73
2022-11-04T10:42:25.855Z,15.85
2022-11-04T10:44:53.095Z,15.88
2022-11-04T10:47:32.119Z,18.42
2022-11-04T10:50:28.791Z,17.95
2022-11-04T10:53:20.977Z,16.80
2022-11-04T10:55:55.040Z,13.65
2022-11-04T10:58:34.541Z,14.20
2022-11-04T11:01:28.853Z,14.75
2022-11-04T11:03:55.807Z,13.63
2022-11-04T11:06:28.486Z,14.15
2022-11-04T11:08:58.016Z,14.23
2022-11-04T11:11:47.221Z,13.15
2022-11-04T11:14:28.935Z,13.07
2022-11-04T11:16:56.839Z,12.38
2022-11-04T11:19:26.889Z,11.55
2022-11-04T11:21:58.356Z,10.25
2022-11-04T11:24:27.034Z,10.50
2022-11-04T11:26:58.370Z,11.13
2022-11-04T11:29:32.816Z,9.95
2022-11-04T11:32:00.892Z,9.90
2022-11-04T11:34:37.702Z,11.45
2022-11-04T11:37:05.293Z,11.63
2022-11-04T11:39:33.507Z,11.45
2022-11-04T11:42:08.392Z,9.63
2022-11-04T11:44:47.597Z,9.05
2022-11-04T11:47:30.691Z,10.23
2022-11-04T11:50:26.202Z,10.45
2022-11-04T11:52:53.009Z,11.13
2022-11-04T11:55:23.811Z,9.52
2022-11-04T12:01:08.149Z,10.48
2022-11-04T12:09:35.903Z,8.38
2022-11-04T12:12:17.727Z,11.27
2022-11-04T12:14:59.178Z,9.18
2022-11-04T12:17:44.296Z,9.18
2022-11-04T12:20:45.706Z,11.15
2022-11-04T12:23:40.041Z,9.68
2022-11-04T12:26:24.833Z,13.55
2022-11-04T12:28:54.663Z,10.60
2022-11-04T12:31:45.882Z,10.52
2022-11-04T12:34:20.583Z,10.85
2022-11-04T12:37:04.377Z,10.30
2022-11-04T12:39:44.178Z,11.25
2022-11-04T12:42:32.382Z,8.93
2022-11-04T12:45:16.871Z,10.15
2022-11-04T12:47:45.375Z,9.98
2022-11-04T12:50:38.772Z,12.27
2022-11-04T12:53:22.995Z,9.80
2022-11-04T12:56:12.094Z,11.05
2022-11-04T12:58:47.281Z,9.52
2022-11-04T13:01:22.069Z,10.65
2022-11-04T13:03:53.913Z,10.93
2022-11-04T13:06:45.555Z,10.32
2022-11-04T13:09:16.604Z,10.25
2022-11-04T13:11:51.314Z,10.30
2022-11-04T13:14:29.281Z,10.70
2022-11-04T13:17:04.058Z,9.98
2022-11-04T13:19:37.362Z,8.48
2022-11-04T13:22:12.025Z,11.77
2022-11-04T13:24:40.619Z,11.25
2022-11-04T13:27:19.089Z,9.63
2022-11-04T13:29:46.269Z,11.73
2022-11-04T13:32:27.404Z,13.38
2022-11-04T13:35:03.653Z,13.70
2022-11-04T13:37:49.972Z,12.30
2022-11-04T13:40:41.778Z,11.45
2022-11-04T13:43:39.004Z,11.95
2022-11-04T13:46:08.694Z,10.68
2022-11-04T13:48:39.741Z,10.40
2022-11-04T13:51:12.022Z,11.35
2022-11-04T13:53:42.618Z,11.95
2022-11-04T13:56:32.341Z,13.02
2022-11-04T13:59:00.326Z,11.20
2022-11-04T14:01:30.459Z,11.63
2022-11-04T14:04:06.611Z,10.65
2022-11-04T14:06:54.548Z,9.90
2022-11-04T14:09:42.994Z,10.00
2022-11-04T14:12:18.766Z,9.95
2022-11-04T14:14:52.828Z,10.10
2022-11-04T14:17:34.693Z,10.10
2022-11-04T14:20:22.056Z,11.50
2022-11-04T14:23:02.947Z,10.68
2022-11-04T14:25:40.989Z,12.05
2022-11-04T14:28:18.888Z,12.55
2022-11-04T14:30:53.756Z,11.35
2022-11-04T14:33:33.566Z,10.85
2022-11-04T14:36:21.877Z,11.98
2022-11-04T14:39:04.782Z,12.73
2022-11-04T14:41:40.561Z,13.95
2022-11-04T14:44:32.196Z,12.85
2022-11-04T14:47:13.148Z,12.65
2022-11-04T14:49:47.150Z,11.40
2022-11-04T14:52:24.649Z,12.68
2022-11-04T14:54:56.895Z,13.02
2022-11-04T14:57:24.772Z,11.10
2022-11-04T14:59:54.565Z,11.70
2022-11-04T15:02:24.053Z,12.48
2022-11-04T15:04:55.261Z,11.85
2022-11-04T15:07:31.135Z,13.73
2022-11-04T15:09:57.915Z,14.05
2022-11-04T15:12:43.254Z,14.88
2022-11-04T15:15:38.507Z,13.07
2022-11-04T15:18:07.447Z,14.80
2022-11-04T15:20:39.012Z,12.55
2022-11-04T15:23:08.431Z,12.70
2022-11-04T15:25:35.537Z,16.67
2022-11-04T15:28:02.149Z,15.20
2022-11-04T15:30:31.102Z,19.88
2022-11-04T15:33:00.905Z,16.67
2022-11-04T15:35:30.211Z,20.15
2022-11-04T15:38:01.397Z,13.88
2022-11-04T15:40:29.065Z,14.25
2022-11-04T15:43:03.954Z,16.90
2022-11-04T15:45:39.073Z,15.80
2022-11-04T15:48:24.596Z,16.80
2022-11-04T15:51:21.865Z,12.55
2022-11-04T15:53:54.778Z,14.23
2022-11-04T15:56:27.862Z,13.52
2022-11-04T15:58:56.128Z,12.32
2022-11-04T16:01:23.219Z,12.30
2022-11-04T16:03:58.606Z,13.38
2022-11-04T16:06:39.037Z,14.88
2022-11-04T16:09:19.209Z,17.30
2022-11-04T16:12:07.185Z,19.48
2022-11-04T16:14:34.013Z,19.30
2022-11-04T16:17:00.746Z,19.08
2022-11-04T16:19:29.636Z,21.85
2022-11-04T16:22:02.435Z,20.65
2022-11-04T16:24:34.003Z,19.77
2022-11-04T16:27:00.766Z,17.92
2022-11-04T16:29:33.611Z,17.50
2022-11-04T16:32:17.918Z,16.42
2022-11-04T16:34:49.317Z,16.55
2022-11-04T16:37:16.032Z,18.70
2022-11-04T16:39:44.134Z,16.73
2022-11-04T16:42:14.886Z,15.60
2022-11-04T16:44:47.036Z,13.38
2022-11-04T16:47:14.497Z,15.30
2022-11-04T16:49:41.795Z,15.40
2022-11-04T16:52:20.331Z,16.83
2022-11-04T16:54:48.248Z,15.60
2022-11-04T16:57:15.311Z,15.45
2022-11-04T16:59:42.123Z,17.13
2022-11-04T17:02:37.844Z,17.23
2022-11-04T17:05:05.625Z,14.52
2022-11-04T17:07:51.574Z,17.98
2022-11-04T17:10:25.272Z,16.30
2022-11-04T17:12:52.055Z,14.18
2022-11-04T17:15:18.992Z,16.63
2022-11-04T17:17:45.653Z,16.63
2022-11-04T17:20:14.590Z,13.32
2022-11-04T17:22:44.783Z,14.93
2022-11-04T17:25:30.016Z,14.77
2022-11-04T17:27:56.722Z,14.57
2022-11-04T17:30:23.920Z,17.97
2022-11-04T17:32:50.811Z,17.08
2022-11-04T17:35:17.964Z,17.33
2022-11-04T17:37:44.662Z,15.73
2022-11-04T17:40:16.407Z,17.88
2022-11-04T17:43:10.115Z,15.13
2022-11-04T17:45:38.510Z,15.05
2022-11-04T17:48:05.482Z,14.35
2022-11-04T17:50:32.593Z,22.30
2022-11-04T17:52:59.312Z,14.77
2022-11-04T17:55:27.749Z,15.95
2022-11-04T17:57:55.344Z,17.75
2022-11-04T18:00:26.017Z,15.82
2022-11-04T18:02:52.903Z,16.13
2022-11-04T18:05:20.311Z,17.60
2022-11-04T18:07:47.039Z,15.00
2022-11-04T18:10:13.683Z,15.73
2022-11-04T18:12:41.626Z,17.85
2022-11-04T18:15:13.662Z,14.93
2022-11-04T18:17:41.989Z,17.10
2022-11-04T18:20:13.950Z,15.95
2022-11-04T18:22:41.853Z,17.20
2022-11-04T18:25:09.155Z,14.32
2022-11-04T18:27:36.180Z,13.07
2022-11-04T18:30:03.018Z,14.48
2022-11-04T18:32:29.720Z,13.23
2022-11-04T18:34:57.678Z,16.40
2022-11-04T18:37:24.401Z,15.07
2022-11-04T18:39:51.100Z,13.07
2022-11-04T18:42:17.784Z,15.77
2022-11-04T18:44:44.504Z,14.15
2022-11-04T18:47:11.178Z,13.75
2022-11-04T18:49:37.944Z,14.30
2022-11-04T18:52:04.603Z,14.70
2022-11-04T18:54:31.320Z,14.88
2022-11-04T18:56:58.179Z,14.05
2022-11-04T18:59:24.908Z,16.40
2022-11-04T19:01:53.318Z,15.40
2022-11-04T19:04:20.377Z,14.65
2022-11-04T19:06:47.238Z,13.88
2022-11-04T19:12:21.452Z,13.07
2022-11-04T19:14:48.161Z,14.00
2022-11-04T19:17:15.001Z,15.87
2022-11-04T19:19:42.896Z,15.93
2022-11-04T19:22:10.030Z,17.00
2022-11-04T19:24:36.804Z,20.27
2022-11-04T19:27:04.445Z,18.95
2022-11-04T19:29:33.027Z,17.13
2022-11-04T19:32:02.286Z,18.65
2022-11-04T19:34:28.888Z,18.13
2022-11-04T19:36:55.533Z,17.98
2022-11-04T19:39:22.399Z,16.93
2022-11-04T19:42:07.874Z,14.90
2022-11-04T19:44:34.725Z,14.65
2022-11-04T19:47:01.459Z,14.10
2022-11-04T19:49:31.546Z,16.67
2022-11-04T19:51:59.031Z,14.53
2022-11-04T19:54:26.440Z,15.45
2022-11-04T19:56:53.176Z,14.37
2022-11-04T19:59:20.238Z,16.30
2022-11-04T20:01:47.054Z,16.03
2022-11-04T20:04:13.824Z,15.00
2022-11-04T20:06:40.640Z,14.43
2022-11-04T20:09:09.643Z,15.90
2022-11-04T20:12:00.624Z,15.40
2022-11-04T20:14:28.552Z,13.60
2022-11-04T20:16:55.641Z,14.30
2022-11-04T20:19:23.147Z,13.67
2022-11-04T20:21:50.210Z,13.82
2022-11-04T20:24:16.957Z,13.48
2022-11-04T20:26:44.177Z,14.23
2022-11-04T20:29:11.629Z,12.80
2022-11-04T20:31:39.600Z,13.37
2022-11-04T20:34:10.670Z,13.40
2022-11-04T20:36:38.115Z,13.37
2022-11-04T20:39:06.919Z,13.37
2022-11-04T20:41:34.504Z,12.02
2022-11-04T20:44:01.813Z,11.63
2022-11-04T20:46:34.972Z,15.45
2022-11-04T20:49:03.145Z,17.75
2022-11-04T20:51:32.273Z,14.43
2022-11-04T20:54:01.420Z,12.27
2022-11-04T20:56:35.781Z,15.57
2022-11-04T20:59:03.411Z,15.13
2022-11-04T21:01:32.559Z,14.83
2022-11-04T21:04:04.196Z,17.33
2022-11-04T21:06:35.927Z,14.95
2022-11-04T21:09:02.564Z,13.63
2022-11-04T21:11:32.085Z,14.00
2022-11-04T21:13:59.178Z,15.07
2022-11-04T21:16:26.356Z,13.60
2022-11-04T21:18:53.047Z,12.75
2022-11-04T21:21:20.510Z,16.55
2022-11-04T21:23:47.286Z,16.30
2022-11-04T21:26:23.504Z,15.17
2022-11-04T21:28:57.237Z,16.20
2022-11-04T21:31:24.832Z,15.73
2022-11-04T21:33:52.027Z,17.63
